sensor_id;sensor_type;location;lat;lon;timestamp;P1;durP1;ratioP1;P2;durP2;ratioP2
55545;SDS011;44768;50.298;127.520;2022-07-18T00:01:21;8.20;;;1.80;;
55545;SDS011;44768;50.298;127.520;2022-07-18T00:06:23;7.97;;;2.25;;
55545;SDS011;44768;50.298;127.520;2022-07-18T00:11:24;14.88;;;1.75;;
55545;SDS011;44768;50.298;127.520;2022-07-18T00:16:25;11.63;;;2.00;;
55545;SDS011;44768;50.298;127.520;2022-07-18T00:21:27;6.90;;;1.92;;
55545;SDS011;44768;50.298;127.520;2022-07-18T00:26:30;15.23;;;1.90;;
55545;SDS011;44768;50.298;127.520;2022-07-18T00:31:32;15.02;;;2.28;;
55545;SDS011;44768;50.298;127.520;2022-07-18T00:36:34;14.70;;;3.00;;
55545;SDS011;44768;50.298;127.520;2022-07-18T00:41:36;10.73;;;2.00;;
55545;SDS011;44768;50.298;127.520;2022-07-18T00:46:38;13.48;;;2.10;;
55545;SDS011;44768;50.298;127.520;2022-07-18T00:51:39;8.40;;;1.55;;
55545;SDS011;44768;50.298;127.520;2022-07-18T00:56:41;7.93;;;1.40;;
55545;SDS011;44768;50.298;127.520;2022-07-18T01:01:43;21.95;;;1.92;;
55545;SDS011;44768;50.298;127.520;2022-07-18T01:06:49;13.30;;;1.40;;
55545;SDS011;44768;50.298;127.520;2022-07-18T01:11:51;8.93;;;1.27;;
55545;SDS011;44768;50.298;127.520;2022-07-18T01:16:53;7.63;;;1.48;;
55545;SDS011;44768;50.298;127.520;2022-07-18T01:21:54;13.07;;;1.70;;
55545;SDS011;44768;50.298;127.520;2022-07-18T01:26:57;11.15;;;1.20;;
55545;SDS011;44768;50.298;127.520;2022-07-18T01:32:08;10.18;;;1.42;;
55545;SDS011;44768;50.298;127.520;2022-07-18T01:37:10;11.93;;;1.35;;
55545;SDS011;44768;50.298;127.520;2022-07-18T01:42:13;9.45;;;1.67;;
55545;SDS011;44768;50.298;127.520;2022-07-18T01:47:14;14.63;;;1.83;;
55545;SDS011;44768;50.298;127.520;2022-07-18T01:52:16;14.38;;;1.30;;
55545;SDS011;44768;50.298;127.520;2022-07-18T01:57:18;8.68;;;1.50;;
55545;SDS011;44768;50.298;127.520;2022-07-18T02:02:19;5.55;;;1.50;;
55545;SDS011;44768;50.298;127.520;2022-07-18T02:07:21;12.43;;;1.63;;
55545;SDS011;44768;50.298;127.520;2022-07-18T02:12:22;8.18;;;1.30;;
55545;SDS011;44768;50.298;127.520;2022-07-18T02:17:24;46.22;;;2.28;;
55545;SDS011;44768;50.298;127.520;2022-07-18T02:22:25;2.65;;;0.95;;
55545;SDS011;44768;50.298;127.520;2022-07-18T02:27:28;10.00;;;2.83;;
55545;SDS011;44768;50.298;127.520;2022-07-18T02:32:30;6.22;;;1.10;;
55545;SDS011;44768;50.298;127.520;2022-07-18T02:37:32;10.45;;;1.67;;
55545;SDS011;44768;50.298;127.520;2022-07-18T02:42:33;7.53;;;1.50;;
55545;SDS011;44768;50.298;127.520;2022-07-18T02:47:35;23.58;;;2.00;;
55545;SDS011;44768;50.298;127.520;2022-07-18T02:52:38;8.88;;;1.92;;
55545;SDS011;44768;50.298;127.520;2022-07-18T02:57:41;32.50;;;3.20;;
55545;SDS011;44768;50.298;127.520;2022-07-18T03:02:43;7.78;;;1.27;;
55545;SDS011;44768;50.298;127.520;2022-07-18T03:07:46;6.32;;;1.30;;
55545;SDS011;44768;50.298;127.520;2022-07-18T03:18:14;6.55;;;1.20;;
55545;SDS011;44768;50.298;127.520;2022-07-18T03:23:15;11.98;;;3.28;;
55545;SDS011;44768;50.298;127.520;2022-07-18T03:28:18;68.72;;;2.22;;
55545;SDS011;44768;50.298;127.520;2022-07-18T03:33:19;101.90;;;4.63;;
55545;SDS011;44768;50.298;127.520;2022-07-18T03:38:21;13.02;;;1.40;;
55545;SDS011;44768;50.298;127.520;2022-07-18T03:43:22;9.45;;;1.50;;
55545;SDS011;44768;50.298;127.520;2022-07-18T03:48:24;5.75;;;1.08;;
55545;SDS011;44768;50.298;127.520;2022-07-18T03:53:25;7.03;;;1.17;;
55545;SDS011;44768;50.298;127.520;2022-07-18T03:58:27;11.50;;;1.30;;
55545;SDS011;44768;50.298;127.520;2022-07-18T04:03:29;7.40;;;1.40;;
55545;SDS011;44768;50.298;127.520;2022-07-18T04:08:30;6.95;;;0.63;;
55545;SDS011;44768;50.298;127.520;2022-07-18T04:13:32;0.00;;;0.00;;
55545;SDS011;44768;50.298;127.520;2022-07-18T04:18:33;0.00;;;0.00;;
55545;SDS011;44768;50.298;127.520;2022-07-18T04:23:35;0.10;;;0.03;;
55545;SDS011;44768;50.298;127.520;2022-07-18T04:28:38;0.00;;;0.00;;
55545;SDS011;44768;50.298;127.520;2022-07-18T04:33:40;0.00;;;0.00;;
55545;SDS011;44768;50.298;127.520;2022-07-18T04:38:41;0.00;;;0.00;;
55545;SDS011;44768;50.298;127.520;2022-07-18T04:43:43;0.00;;;0.00;;
55545;SDS011;44768;50.298;127.520;2022-07-18T04:48:45;0.00;;;0.00;;
55545;SDS011;44768;50.298;127.520;2022-07-18T04:53:47;0.00;;;0.00;;
55545;SDS011;44768;50.298;127.520;2022-07-18T04:58:48;0.00;;;0.00;;
55545;SDS011;44768;50.298;127.520;2022-07-18T05:03:50;0.00;;;0.00;;
55545;SDS011;44768;50.298;127.520;2022-07-18T05:08:51;0.00;;;0.00;;
55545;SDS011;44768;50.298;127.520;2022-07-18T05:13:53;0.00;;;0.00;;
55545;SDS011;44768;50.298;127.520;2022-07-18T05:18:55;0.00;;;0.00;;
55545;SDS011;44768;50.298;127.520;2022-07-18T05:23:57;0.00;;;0.00;;
55545;SDS011;44768;50.298;127.520;2022-07-18T05:28:59;0.00;;;0.00;;
55545;SDS011;44768;50.298;127.520;2022-07-18T05:34:01;0.00;;;0.00;;
55545;SDS011;44768;50.298;127.520;2022-07-18T05:39:03;0.00;;;0.00;;
55545;SDS011;44768;50.298;127.520;2022-07-18T05:44:04;0.00;;;0.00;;
55545;SDS011;44768;50.298;127.520;2022-07-18T05:49:06;0.00;;;0.00;;
55545;SDS011;44768;50.298;127.520;2022-07-18T05:54:07;0.00;;;0.00;;
55545;SDS011;44768;50.298;127.520;2022-07-18T05:59:09;0.00;;;0.00;;
55545;SDS011;44768;50.298;127.520;2022-07-18T06:04:11;0.00;;;0.00;;
55545;SDS011;44768;50.298;127.520;2022-07-18T06:09:13;0.00;;;0.00;;
55545;SDS011;44768;50.298;127.520;2022-07-18T06:14:15;0.00;;;0.00;;
55545;SDS011;44768;50.298;127.520;2022-07-18T06:19:17;0.00;;;0.00;;
55545;SDS011;44768;50.298;127.520;2022-07-18T06:24:18;0.00;;;0.00;;
55545;SDS011;44768;50.298;127.520;2022-07-18T06:29:21;0.00;;;0.00;;
55545;SDS011;44768;50.298;127.520;2022-07-18T06:34:24;0.00;;;0.00;;
55545;SDS011;44768;50.298;127.520;2022-07-18T06:39:26;0.00;;;0.00;;
55545;SDS011;44768;50.298;127.520;2022-07-18T06:44:27;0.00;;;0.00;;
55545;SDS011;44768;50.298;127.520;2022-07-18T06:49:30;0.00;;;0.00;;
55545;SDS011;44768;50.298;127.520;2022-07-18T06:54:31;0.00;;;0.00;;
55545;SDS011;44768;50.298;127.520;2022-07-18T06:59:35;0.00;;;0.00;;
55545;SDS011;44768;50.298;127.520;2022-07-18T07:04:37;0.00;;;0.00;;
55545;SDS011;44768;50.298;127.520;2022-07-18T07:09:38;0.00;;;0.00;;
55545;SDS011;44768;50.298;127.520;2022-07-18T07:14:40;0.00;;;0.00;;
55545;SDS011;44768;50.298;127.520;2022-07-18T07:19:42;0.00;;;0.00;;
55545;SDS011;44768;50.298;127.520;2022-07-18T07:24:43;0.00;;;0.00;;
55545;SDS011;44768;50.298;127.520;2022-07-18T07:29:46;0.00;;;0.00;;
55545;SDS011;44768;50.298;127.520;2022-07-18T07:34:47;0.00;;;0.00;;
55545;SDS011;44768;50.298;127.520;2022-07-18T07:39:49;0.00;;;0.00;;
55545;SDS011;44768;50.298;127.520;2022-07-18T07:44:51;0.00;;;0.00;;
55545;SDS011;44768;50.298;127.520;2022-07-18T07:49:52;0.00;;;0.00;;
55545;SDS011;44768;50.298;127.520;2022-07-18T07:54:54;0.00;;;0.00;;
55545;SDS011;44768;50.298;127.520;2022-07-18T07:59:55;0.00;;;0.00;;
55545;SDS011;44768;50.298;127.520;2022-07-18T08:04:57;0.00;;;0.00;;
55545;SDS011;44768;50.298;127.520;2022-07-18T08:09:59;0.00;;;0.00;;
55545;SDS011;44768;50.298;127.520;2022-07-18T08:15:00;0.00;;;0.00;;
55545;SDS011;44768;50.298;127.520;2022-07-18T08:20:03;0.00;;;0.00;;
55545;SDS011;44768;50.298;127.520;2022-07-18T08:25:06;0.00;;;0.00;;
55545;SDS011;44768;50.298;127.520;2022-07-18T08:30:08;0.10;;;0.10;;
55545;SDS011;44768;50.298;127.520;2022-07-18T08:35:10;0.00;;;0.00;;
55545;SDS011;44768;50.298;127.520;2022-07-18T08:40:12;0.38;;;0.20;;
55545;SDS011;44768;50.298;127.520;2022-07-18T08:45:15;0.00;;;0.00;;
55545;SDS011;44768;50.298;127.520;2022-07-18T08:50:17;0.00;;;0.00;;
55545;SDS011;44768;50.298;127.520;2022-07-18T08:55:19;0.00;;;0.00;;
55545;SDS011;44768;50.298;127.520;2022-07-18T09:00:21;0.00;;;0.00;;
55545;SDS011;44768;50.298;127.520;2022-07-18T09:05:23;0.00;;;0.00;;
55545;SDS011;44768;50.298;127.520;2022-07-18T09:10:24;0.00;;;0.00;;
55545;SDS011;44768;50.298;127.520;2022-07-18T09:21:06;0.00;;;0.00;;
55545;SDS011;44768;50.298;127.520;2022-07-18T09:26:10;0.00;;;0.00;;
55545;SDS011;44768;50.298;127.520;2022-07-18T09:31:20;0.00;;;0.00;;
55545;SDS011;44768;50.298;127.520;2022-07-18T09:36:22;0.00;;;0.00;;
55545;SDS011;44768;50.298;127.520;2022-07-18T09:41:25;0.00;;;0.00;;
55545;SDS011;44768;50.298;127.520;2022-07-18T09:46:28;0.00;;;0.00;;
55545;SDS011;44768;50.298;127.520;2022-07-18T09:51:30;0.00;;;0.00;;
55545;SDS011;44768;50.298;127.520;2022-07-18T09:56:31;0.00;;;0.00;;
55545;SDS011;44768;50.298;127.520;2022-07-18T10:01:38;0.00;;;0.00;;
55545;SDS011;44768;50.298;127.520;2022-07-18T10:06:40;0.00;;;0.00;;
55545;SDS011;44768;50.298;127.520;2022-07-18T10:11:43;0.00;;;0.00;;
55545;SDS011;44768;50.298;127.520;2022-07-18T10:16:44;0.00;;;0.00;;
55545;SDS011;44768;50.298;127.520;2022-07-18T10:21:47;0.00;;;0.00;;
55545;SDS011;44768;50.298;127.520;2022-07-18T10:32:15;0.03;;;0.03;;
55545;SDS011;44768;50.298;127.520;2022-07-18T10:37:34;0.00;;;0.00;;
55545;SDS011;44768;50.298;127.520;2022-07-18T10:42:36;0.00;;;0.00;;
55545;SDS011;44768;50.298;127.520;2022-07-18T10:47:37;0.00;;;0.00;;
55545;SDS011;44768;50.298;127.520;2022-07-18T10:57:41;0.00;;;0.00;;
55545;SDS011;44768;50.298;127.520;2022-07-18T11:03:07;0.00;;;0.00;;
55545;SDS011;44768;50.298;127.520;2022-07-18T11:23:46;0.00;;;0.00;;
55545;SDS011;44768;50.298;127.520;2022-07-18T11:28:57;3.58;;;0.40;;
55545;SDS011;44768;50.298;127.520;2022-07-18T11:34:00;0.00;;;0.00;;
55545;SDS011;44768;50.298;127.520;2022-07-18T11:44:33;0.00;;;0.00;;
55545;SDS011;44768;50.298;127.520;2022-07-18T11:49:36;0.00;;;0.00;;
55545;SDS011;44768;50.298;127.520;2022-07-18T11:54:38;0.00;;;0.00;;
55545;SDS011;44768;50.298;127.520;2022-07-18T11:59:41;0.00;;;0.00;;
55545;SDS011;44768;50.298;127.520;2022-07-18T12:04:46;0.00;;;0.00;;
55545;SDS011;44768;50.298;127.520;2022-07-18T12:09:48;0.00;;;0.00;;
55545;SDS011;44768;50.298;127.520;2022-07-18T12:14:59;0.00;;;0.00;;
55545;SDS011;44768;50.298;127.520;2022-07-18T12:20:15;0.00;;;0.00;;
55545;SDS011;44768;50.298;127.520;2022-07-18T12:25:19;0.00;;;0.00;;
55545;SDS011;44768;50.298;127.520;2022-07-18T12:30:21;0.00;;;0.00;;
55545;SDS011;44768;50.298;127.520;2022-07-18T12:35:24;0.00;;;0.00;;
55545;SDS011;44768;50.298;127.520;2022-07-18T12:40:46;0.10;;;0.10;;
55545;SDS011;44768;50.298;127.520;2022-07-18T12:46:03;0.00;;;0.00;;
55545;SDS011;44768;50.298;127.520;2022-07-18T12:51:09;0.00;;;0.00;;
55545;SDS011;44768;50.298;127.520;2022-07-18T12:56:11;0.00;;;0.00;;
55545;SDS011;44768;50.298;127.520;2022-07-18T13:01:13;0.20;;;0.20;;
55545;SDS011;44768;50.298;127.520;2022-07-18T13:06:15;0.10;;;0.10;;
55545;SDS011;44768;50.298;127.520;2022-07-18T13:11:16;0.10;;;0.10;;
55545;SDS011;44768;50.298;127.520;2022-07-18T13:16:18;0.03;;;0.03;;
55545;SDS011;44768;50.298;127.520;2022-07-18T13:21:20;0.10;;;0.10;;
55545;SDS011;44768;50.298;127.520;2022-07-18T13:26:22;0.10;;;0.10;;
55545;SDS011;44768;50.298;127.520;2022-07-18T13:31:24;0.10;;;0.10;;
55545;SDS011;44768;50.298;127.520;2022-07-18T13:36:25;0.00;;;0.00;;
55545;SDS011;44768;50.298;127.520;2022-07-18T13:41:28;0.08;;;0.08;;
55545;SDS011;44768;50.298;127.520;2022-07-18T13:46:30;0.10;;;0.10;;
55545;SDS011;44768;50.298;127.520;2022-07-18T13:51:32;0.08;;;0.08;;
55545;SDS011;44768;50.298;127.520;2022-07-18T13:56:34;0.10;;;0.10;;
55545;SDS011;44768;50.298;127.520;2022-07-18T14:01:35;0.10;;;0.10;;
55545;SDS011;44768;50.298;127.520;2022-07-18T14:06:37;0.10;;;0.10;;
55545;SDS011;44768;50.298;127.520;2022-07-18T14:17:06;0.00;;;0.00;;
55545;SDS011;44768;50.298;127.520;2022-07-18T14:22:10;0.10;;;0.10;;
55545;SDS011;44768;50.298;127.520;2022-07-18T14:27:13;0.05;;;0.05;;
55545;SDS011;44768;50.298;127.520;2022-07-18T14:32:14;0.00;;;0.00;;
55545;SDS011;44768;50.298;127.520;2022-07-18T14:37:16;0.00;;;0.00;;
55545;SDS011;44768;50.298;127.520;2022-07-18T14:42:19;0.10;;;0.10;;
55545;SDS011;44768;50.298;127.520;2022-07-18T14:47:21;0.00;;;0.00;;
55545;SDS011;44768;50.298;127.520;2022-07-18T14:52:23;0.00;;;0.00;;
55545;SDS011;44768;50.298;127.520;2022-07-18T14:57:25;0.10;;;0.10;;
55545;SDS011;44768;50.298;127.520;2022-07-18T15:02:27;0.05;;;0.05;;
55545;SDS011;44768;50.298;127.520;2022-07-18T15:07:29;0.10;;;0.10;;
55545;SDS011;44768;50.298;127.520;2022-07-18T15:12:31;0.10;;;0.10;;
55545;SDS011;44768;50.298;127.520;2022-07-18T15:17:33;0.10;;;0.10;;
55545;SDS011;44768;50.298;127.520;2022-07-18T15:22:34;0.25;;;0.25;;
55545;SDS011;44768;50.298;127.520;2022-07-18T15:27:36;0.10;;;0.10;;
55545;SDS011;44768;50.298;127.520;2022-07-18T15:32:39;0.10;;;0.10;;
55545;SDS011;44768;50.298;127.520;2022-07-18T15:37:41;0.10;;;0.10;;
55545;SDS011;44768;50.298;127.520;2022-07-18T15:42:43;0.10;;;0.10;;
55545;SDS011;44768;50.298;127.520;2022-07-18T15:47:44;0.00;;;0.00;;
55545;SDS011;44768;50.298;127.520;2022-07-18T15:52:46;0.10;;;0.10;;
55545;SDS011;44768;50.298;127.520;2022-07-18T15:57:47;0.10;;;0.10;;
55545;SDS011;44768;50.298;127.520;2022-07-18T16:02:49;0.03;;;0.03;;
55545;SDS011;44768;50.298;127.520;2022-07-18T16:07:50;0.10;;;0.10;;
55545;SDS011;44768;50.298;127.520;2022-07-18T16:12:52;0.10;;;0.10;;
55545;SDS011;44768;50.298;127.520;2022-07-18T16:17:54;0.10;;;0.10;;
55545;SDS011;44768;50.298;127.520;2022-07-18T16:22:56;0.10;;;0.10;;
55545;SDS011;44768;50.298;127.520;2022-07-18T16:27:58;0.10;;;0.10;;
55545;SDS011;44768;50.298;127.520;2022-07-18T16:33:00;0.10;;;0.10;;
55545;SDS011;44768;50.298;127.520;2022-07-18T16:38:02;0.10;;;0.10;;
55545;SDS011;44768;50.298;127.520;2022-07-18T16:43:04;0.10;;;0.10;;
55545;SDS011;44768;50.298;127.520;2022-07-18T16:48:06;0.10;;;0.10;;
55545;SDS011;44768;50.298;127.520;2022-07-18T16:53:08;0.10;;;0.10;;
55545;SDS011;44768;50.298;127.520;2022-07-18T16:58:10;0.10;;;0.10;;
55545;SDS011;44768;50.298;127.520;2022-07-18T17:03:12;0.10;;;0.10;;
55545;SDS011;44768;50.298;127.520;2022-07-18T17:08:13;0.10;;;0.10;;
55545;SDS011;44768;50.298;127.520;2022-07-18T17:13:15;0.10;;;0.10;;
55545;SDS011;44768;50.298;127.520;2022-07-18T17:18:17;0.10;;;0.10;;
55545;SDS011;44768;50.298;127.520;2022-07-18T17:23:19;0.10;;;0.10;;
55545;SDS011;44768;50.298;127.520;2022-07-18T17:28:23;0.10;;;0.10;;
55545;SDS011;44768;50.298;127.520;2022-07-18T17:33:24;0.10;;;0.10;;
55545;SDS011;44768;50.298;127.520;2022-07-18T17:38:26;0.10;;;0.10;;
55545;SDS011;44768;50.298;127.520;2022-07-18T17:43:28;0.10;;;0.10;;
55545;SDS011;44768;50.298;127.520;2022-07-18T17:48:30;0.10;;;0.10;;
55545;SDS011;44768;50.298;127.520;2022-07-18T17:53:32;0.10;;;0.10;;
55545;SDS011;44768;50.298;127.520;2022-07-18T17:58:35;0.10;;;0.10;;
55545;SDS011;44768;50.298;127.520;2022-07-18T18:03:36;0.10;;;0.10;;
55545;SDS011;44768;50.298;127.520;2022-07-18T18:08:38;0.10;;;0.10;;
55545;SDS011;44768;50.298;127.520;2022-07-18T18:13:39;0.10;;;0.10;;
55545;SDS011;44768;50.298;127.520;2022-07-18T18:18:41;0.10;;;0.10;;
55545;SDS011;44768;50.298;127.520;2022-07-18T18:23:43;0.10;;;0.10;;
55545;SDS011;44768;50.298;127.520;2022-07-18T18:28:45;0.10;;;0.10;;
55545;SDS011;44768;50.298;127.520;2022-07-18T18:33:46;0.10;;;0.10;;
55545;SDS011;44768;50.298;127.520;2022-07-18T18:38:48;0.10;;;0.10;;
55545;SDS011;44768;50.298;127.520;2022-07-18T18:43:50;0.10;;;0.10;;
55545;SDS011;44768;50.298;127.520;2022-07-18T18:48:52;0.10;;;0.10;;
55545;SDS011;44768;50.298;127.520;2022-07-18T18:53:54;0.10;;;0.10;;
55545;SDS011;44768;50.298;127.520;2022-07-18T18:58:55;0.10;;;0.10;;
55545;SDS011;44768;50.298;127.520;2022-07-18T19:03:57;0.10;;;0.10;;
55545;SDS011;44768;50.298;127.520;2022-07-18T19:08:58;0.10;;;0.10;;
55545;SDS011;44768;50.298;127.520;2022-07-18T19:14:00;0.10;;;0.10;;
55545;SDS011;44768;50.298;127.520;2022-07-18T19:19:03;0.10;;;0.10;;
55545;SDS011;44768;50.298;127.520;2022-07-18T19:24:04;0.10;;;0.10;;
55545;SDS011;44768;50.298;127.520;2022-07-18T19:29:06;0.10;;;0.10;;
55545;SDS011;44768;50.298;127.520;2022-07-18T19:34:08;0.10;;;0.10;;
55545;SDS011;44768;50.298;127.520;2022-07-18T19:39:10;0.20;;;0.20;;
55545;SDS011;44768;50.298;127.520;2022-07-18T19:44:13;0.10;;;0.10;;
55545;SDS011;44768;50.298;127.520;2022-07-18T19:49:15;0.10;;;0.10;;
55545;SDS011;44768;50.298;127.520;2022-07-18T19:54:16;0.10;;;0.10;;
55545;SDS011;44768;50.298;127.520;2022-07-18T19:59:19;0.10;;;0.10;;
55545;SDS011;44768;50.298;127.520;2022-07-18T20:04:21;0.10;;;0.10;;
55545;SDS011;44768;50.298;127.520;2022-07-18T20:09:24;0.10;;;0.10;;
55545;SDS011;44768;50.298;127.520;2022-07-18T20:14:25;0.10;;;0.10;;
55545;SDS011;44768;50.298;127.520;2022-07-18T20:19:27;0.10;;;0.10;;
55545;SDS011;44768;50.298;127.520;2022-07-18T20:24:34;0.10;;;0.10;;
55545;SDS011;44768;50.298;127.520;2022-07-18T20:29:37;0.10;;;0.10;;
55545;SDS011;44768;50.298;127.520;2022-07-18T20:34:39;0.10;;;0.10;;
55545;SDS011;44768;50.298;127.520;2022-07-18T20:39:41;0.10;;;0.10;;
55545;SDS011;44768;50.298;127.520;2022-07-18T20:44:43;0.10;;;0.10;;
55545;SDS011;44768;50.298;127.520;2022-07-18T20:49:44;0.10;;;0.10;;
55545;SDS011;44768;50.298;127.520;2022-07-18T20:54:46;0.10;;;0.10;;
55545;SDS011;44768;50.298;127.520;2022-07-18T20:59:48;0.55;;;0.10;;
55545;SDS011;44768;50.298;127.520;2022-07-18T21:04:50;0.10;;;0.10;;
55545;SDS011;44768;50.298;127.520;2022-07-18T21:09:51;0.10;;;0.10;;
55545;SDS011;44768;50.298;127.520;2022-07-18T21:14:53;0.10;;;0.10;;
55545;SDS011;44768;50.298;127.520;2022-07-18T21:20:07;0.10;;;0.10;;
55545;SDS011;44768;50.298;127.520;2022-07-18T21:25:11;0.10;;;0.10;;
55545;SDS011;44768;50.298;127.520;2022-07-18T21:30:14;0.10;;;0.10;;
55545;SDS011;44768;50.298;127.520;2022-07-18T21:35:17;0.10;;;0.10;;
55545;SDS011;44768;50.298;127.520;2022-07-18T21:40:21;0.00;;;0.00;;
55545;SDS011;44768;50.298;127.520;2022-07-18T21:45:23;0.00;;;0.00;;
55545;SDS011;44768;50.298;127.520;2022-07-18T21:50:25;0.10;;;0.10;;
55545;SDS011;44768;50.298;127.520;2022-07-18T21:55:27;0.08;;;0.08;;
55545;SDS011;44768;50.298;127.520;2022-07-18T22:00:28;0.00;;;0.00;;
55545;SDS011;44768;50.298;127.520;2022-07-18T22:05:30;0.00;;;0.00;;
55545;SDS011;44768;50.298;127.520;2022-07-18T22:10:32;0.10;;;0.10;;
55545;SDS011;44768;50.298;127.520;2022-07-18T22:15:33;0.00;;;0.00;;
55545;SDS011;44768;50.298;127.520;2022-07-18T22:20:35;0.00;;;0.00;;
55545;SDS011;44768;50.298;127.520;2022-07-18T22:25:37;0.00;;;0.00;;
55545;SDS011;44768;50.298;127.520;2022-07-18T22:30:38;0.00;;;0.00;;
55545;SDS011;44768;50.298;127.520;2022-07-18T22:35:40;0.00;;;0.00;;
55545;SDS011;44768;50.298;127.520;2022-07-18T22:40:41;0.00;;;0.00;;
55545;SDS011;44768;50.298;127.520;2022-07-18T22:45:43;0.08;;;0.08;;
55545;SDS011;44768;50.298;127.520;2022-07-18T22:50:45;0.00;;;0.00;;
55545;SDS011;44768;50.298;127.520;2022-07-18T22:55:47;0.00;;;0.00;;
55545;SDS011;44768;50.298;127.520;2022-07-18T23:00:49;0.08;;;0.00;;
55545;SDS011;44768;50.298;127.520;2022-07-18T23:05:51;0.00;;;0.00;;
55545;SDS011;44768;50.298;127.520;2022-07-18T23:10:52;0.00;;;0.00;;
55545;SDS011;44768;50.298;127.520;2022-07-18T23:15:53;0.00;;;0.00;;
55545;SDS011;44768;50.298;127.520;2022-07-18T23:21:02;0.00;;;0.00;;
55545;SDS011;44768;50.298;127.520;2022-07-18T23:26:09;0.00;;;0.00;;
55545;SDS011;44768;50.298;127.520;2022-07-18T23:31:12;0.00;;;0.00;;
55545;SDS011;44768;50.298;127.520;2022-07-18T23:36:13;0.00;;;0.00;;
55545;SDS011;44768;50.298;127.520;2022-07-18T23:41:45;0.10;;;0.08;;
55545;SDS011;44768;50.298;127.520;2022-07-18T23:46:53;0.00;;;0.00;;
55545;SDS011;44768;50.298;127.520;2022-07-18T23:51:55;0.00;;;0.00;;
55545;SDS011;44768;50.298;127.520;2022-07-18T23:56:59;0.00;;;0.00;;
